sensor_id;sensor_type;location;lat;lon;timestamp;P1;durP1;ratioP1;P2;durP2;ratioP2
37831;SDS011;23671;38.090;-122.570;2023-02-22T00:00:40;8.75;;;2.17;;
37831;SDS011;23671;38.090;-122.570;2023-02-22T00:03:15;6.30;;;1.83;;
37831;SDS011;23671;38.090;-122.570;2023-02-22T00:05:50;8.13;;;1.95;;
37831;SDS011;23671;38.090;-122.570;2023-02-22T00:08:20;8.68;;;1.50;;
37831;SDS011;23671;38.090;-122.570;2023-02-22T00:10:48;8.10;;;1.70;;
37831;SDS011;23671;38.090;-122.570;2023-02-22T00:13:16;6.15;;;1.55;;
37831;SDS011;23671;38.090;-122.570;2023-02-22T00:15:47;10.57;;;1.83;;
37831;SDS011;23671;38.090;-122.570;2023-02-22T00:18:14;8.30;;;1.60;;
37831;SDS011;23671;38.090;-122.570;2023-02-22T00:23:14;6.32;;;1.20;;
37831;SDS011;23671;38.090;-122.570;2023-02-22T00:25:48;11.43;;;2.22;;
37831;SDS011;23671;38.090;-122.570;2023-02-22T00:28:16;9.02;;;2.05;;
37831;SDS011;23671;38.090;-122.570;2023-02-22T00:30:43;8.75;;;1.48;;
37831;SDS011;23671;38.090;-122.570;2023-02-22T00:33:12;4.93;;;1.30;;
37831;SDS011;23671;38.090;-122.570;2023-02-22T00:35:41;7.50;;;1.37;;
37831;SDS011;23671;38.090;-122.570;2023-02-22T00:38:13;8.13;;;1.60;;
37831;SDS011;23671;38.090;-122.570;2023-02-22T00:40:44;5.00;;;1.50;;
37831;SDS011;23671;38.090;-122.570;2023-02-22T00:43:11;9.85;;;1.67;;
37831;SDS011;23671;38.090;-122.570;2023-02-22T00:45:39;8.25;;;2.58;;
37831;SDS011;23671;38.090;-122.570;2023-02-22T00:48:07;9.57;;;2.53;;
37831;SDS011;23671;38.090;-122.570;2023-02-22T00:50:35;9.13;;;2.03;;
37831;SDS011;23671;38.090;-122.570;2023-02-22T00:53:02;5.85;;;1.70;;
37831;SDS011;23671;38.090;-122.570;2023-02-22T00:55:32;6.00;;;1.85;;
37831;SDS011;23671;38.090;-122.570;2023-02-22T00:58:01;6.95;;;1.75;;
37831;SDS011;23671;38.090;-122.570;2023-02-22T01:00:31;13.60;;;2.75;;
37831;SDS011;23671;38.090;-122.570;2023-02-22T01:03:01;11.35;;;2.17;;
37831;SDS011;23671;38.090;-122.570;2023-02-22T01:05:29;8.07;;;1.85;;
37831;SDS011;23671;38.090;-122.570;2023-02-22T01:07:58;10.40;;;2.35;;
37831;SDS011;23671;38.090;-122.570;2023-02-22T01:10:28;6.60;;;1.77;;
37831;SDS011;23671;38.090;-122.570;2023-02-22T01:15:24;5.45;;;1.98;;
37831;SDS011;23671;38.090;-122.570;2023-02-22T01:17:55;9.77;;;1.75;;
37831;SDS011;23671;38.090;-122.570;2023-02-22T01:20:24;14.77;;;3.42;;
37831;SDS011;23671;38.090;-122.570;2023-02-22T01:22:53;13.47;;;2.27;;
37831;SDS011;23671;38.090;-122.570;2023-02-22T01:27:50;14.00;;;2.50;;
37831;SDS011;23671;38.090;-122.570;2023-02-22T01:30:22;16.15;;;2.17;;
37831;SDS011;23671;38.090;-122.570;2023-02-22T01:32:51;16.50;;;2.55;;
37831;SDS011;23671;38.090;-122.570;2023-02-22T01:35:21;13.00;;;2.42;;
37831;SDS011;23671;38.090;-122.570;2023-02-22T01:37:50;9.57;;;1.67;;
37831;SDS011;23671;38.090;-122.570;2023-02-22T01:40:21;15.88;;;2.30;;
37831;SDS011;23671;38.090;-122.570;2023-02-22T01:43:00;13.25;;;2.13;;
37831;SDS011;23671;38.090;-122.570;2023-02-22T01:50:34;10.38;;;1.85;;
37831;SDS011;23671;38.090;-122.570;2023-02-22T01:53:12;10.57;;;2.13;;
37831;SDS011;23671;38.090;-122.570;2023-02-22T01:55:42;9.10;;;1.50;;
37831;SDS011;23671;38.090;-122.570;2023-02-22T01:58:11;10.57;;;2.20;;
37831;SDS011;23671;38.090;-122.570;2023-02-22T02:00:41;13.25;;;1.95;;
37831;SDS011;23671;38.090;-122.570;2023-02-22T02:03:16;10.77;;;2.15;;
37831;SDS011;23671;38.090;-122.570;2023-02-22T02:05:46;6.70;;;1.45;;
37831;SDS011;23671;38.090;-122.570;2023-02-22T02:08:36;7.07;;;2.03;;
37831;SDS011;23671;38.090;-122.570;2023-02-22T02:11:07;8.05;;;1.60;;
37831;SDS011;23671;38.090;-122.570;2023-02-22T02:13:35;10.20;;;2.00;;
37831;SDS011;23671;38.090;-122.570;2023-02-22T02:16:06;13.27;;;2.00;;
37831;SDS011;23671;38.090;-122.570;2023-02-22T02:18:33;6.45;;;2.03;;
37831;SDS011;23671;38.090;-122.570;2023-02-22T02:43:07;9.68;;;1.98;;
37831;SDS011;23671;38.090;-122.570;2023-02-22T02:45:53;5.78;;;1.35;;
37831;SDS011;23671;38.090;-122.570;2023-02-22T02:48:41;5.53;;;1.90;;
37831;SDS011;23671;38.090;-122.570;2023-02-22T02:51:21;5.13;;;1.25;;
37831;SDS011;23671;38.090;-122.570;2023-02-22T02:53:53;4.10;;;0.98;;
37831;SDS011;23671;38.090;-122.570;2023-02-22T02:56:21;3.80;;;1.02;;
37831;SDS011;23671;38.090;-122.570;2023-02-22T02:58:49;5.63;;;1.90;;
37831;SDS011;23671;38.090;-122.570;2023-02-22T03:06:47;4.82;;;1.17;;
37831;SDS011;23671;38.090;-122.570;2023-02-22T03:12:15;4.03;;;1.95;;
37831;SDS011;23671;38.090;-122.570;2023-02-22T03:23:23;4.47;;;1.13;;
37831;SDS011;23671;38.090;-122.570;2023-02-22T03:26:14;5.97;;;1.40;;
37831;SDS011;23671;38.090;-122.570;2023-02-22T03:28:48;3.17;;;0.93;;
37831;SDS011;23671;38.090;-122.570;2023-02-22T03:31:24;3.40;;;0.82;;
37831;SDS011;23671;38.090;-122.570;2023-02-22T03:33:59;4.00;;;0.90;;
37831;SDS011;23671;38.090;-122.570;2023-02-22T03:36:33;4.18;;;0.95;;
37831;SDS011;23671;38.090;-122.570;2023-02-22T03:39:06;2.65;;;1.02;;
37831;SDS011;23671;38.090;-122.570;2023-02-22T03:41:40;4.90;;;1.13;;
37831;SDS011;23671;38.090;-122.570;2023-02-22T03:44:19;3.80;;;0.85;;
37831;SDS011;23671;38.090;-122.570;2023-02-22T03:46:51;5.40;;;0.95;;
37831;SDS011;23671;38.090;-122.570;2023-02-22T03:49:48;4.55;;;0.80;;
37831;SDS011;23671;38.090;-122.570;2023-02-22T03:52:12;3.70;;;0.85;;
37831;SDS011;23671;38.090;-122.570;2023-02-22T03:54:39;2.90;;;0.88;;
37831;SDS011;23671;38.090;-122.570;2023-02-22T03:57:14;2.47;;;0.65;;
37831;SDS011;23671;38.090;-122.570;2023-02-22T03:59:50;2.85;;;0.70;;
37831;SDS011;23671;38.090;-122.570;2023-02-22T04:02:17;8.65;;;0.80;;
37831;SDS011;23671;38.090;-122.570;2023-02-22T04:04:45;1.98;;;0.63;;
37831;SDS011;23671;38.090;-122.570;2023-02-22T04:07:12;3.50;;;0.73;;
37831;SDS011;23671;38.090;-122.570;2023-02-22T04:09:39;4.07;;;0.70;;
37831;SDS011;23671;38.090;-122.570;2023-02-22T04:12:07;2.75;;;0.93;;
37831;SDS011;23671;38.090;-122.570;2023-02-22T04:14:34;5.03;;;0.82;;
37831;SDS011;23671;38.090;-122.570;2023-02-22T04:17:01;2.58;;;0.52;;
37831;SDS011;23671;38.090;-122.570;2023-02-22T04:19:28;2.33;;;0.63;;
37831;SDS011;23671;38.090;-122.570;2023-02-22T04:21:55;3.25;;;0.65;;
37831;SDS011;23671;38.090;-122.570;2023-02-22T04:24:22;3.30;;;0.57;;
37831;SDS011;23671;38.090;-122.570;2023-02-22T04:26:49;2.75;;;0.43;;
37831;SDS011;23671;38.090;-122.570;2023-02-22T04:29:17;3.15;;;0.47;;
37831;SDS011;23671;38.090;-122.570;2023-02-22T04:31:44;4.00;;;0.50;;
37831;SDS011;23671;38.090;-122.570;2023-02-22T04:34:11;1.42;;;0.88;;
37831;SDS011;23671;38.090;-122.570;2023-02-22T04:36:38;2.13;;;0.60;;
37831;SDS011;23671;38.090;-122.570;2023-02-22T04:39:08;2.20;;;0.52;;
37831;SDS011;23671;38.090;-122.570;2023-02-22T04:41:36;3.78;;;0.73;;
37831;SDS011;23671;38.090;-122.570;2023-02-22T04:44:03;2.80;;;0.50;;
37831;SDS011;23671;38.090;-122.570;2023-02-22T04:46:30;2.42;;;0.50;;
37831;SDS011;23671;38.090;-122.570;2023-02-22T04:48:57;1.65;;;0.40;;
37831;SDS011;23671;38.090;-122.570;2023-02-22T04:51:24;2.13;;;0.40;;
37831;SDS011;23671;38.090;-122.570;2023-02-22T04:53:51;3.38;;;0.40;;
37831;SDS011;23671;38.090;-122.570;2023-02-22T04:56:18;1.73;;;0.63;;
37831;SDS011;23671;38.090;-122.570;2023-02-22T04:58:45;2.67;;;0.50;;
37831;SDS011;23671;38.090;-122.570;2023-02-22T05:01:13;2.00;;;0.47;;
37831;SDS011;23671;38.090;-122.570;2023-02-22T05:03:40;1.60;;;0.32;;
37831;SDS011;23671;38.090;-122.570;2023-02-22T05:06:08;1.77;;;1.33;;
37831;SDS011;23671;38.090;-122.570;2023-02-22T05:08:36;3.17;;;0.50;;
37831;SDS011;23671;38.090;-122.570;2023-02-22T05:11:04;3.55;;;0.55;;
37831;SDS011;23671;38.090;-122.570;2023-02-22T05:13:31;3.50;;;0.60;;
37831;SDS011;23671;38.090;-122.570;2023-02-22T05:15:58;2.10;;;0.45;;
37831;SDS011;23671;38.090;-122.570;2023-02-22T05:18:25;1.40;;;0.22;;
37831;SDS011;23671;38.090;-122.570;2023-02-22T05:20:52;1.80;;;0.40;;
37831;SDS011;23671;38.090;-122.570;2023-02-22T05:23:19;0.65;;;0.50;;
37831;SDS011;23671;38.090;-122.570;2023-02-22T05:25:46;3.53;;;0.52;;
37831;SDS011;23671;38.090;-122.570;2023-02-22T05:28:14;1.98;;;0.50;;
37831;SDS011;23671;38.090;-122.570;2023-02-22T05:30:41;3.75;;;0.45;;
37831;SDS011;23671;38.090;-122.570;2023-02-22T05:33:08;1.90;;;0.45;;
37831;SDS011;23671;38.090;-122.570;2023-02-22T05:35:35;0.82;;;0.22;;
37831;SDS011;23671;38.090;-122.570;2023-02-22T05:38:03;1.90;;;0.63;;
37831;SDS011;23671;38.090;-122.570;2023-02-22T05:40:31;2.80;;;0.50;;
37831;SDS011;23671;38.090;-122.570;2023-02-22T05:42:59;1.40;;;0.50;;
37831;SDS011;23671;38.090;-122.570;2023-02-22T05:45:27;1.80;;;0.47;;
37831;SDS011;23671;38.090;-122.570;2023-02-22T05:47:54;0.98;;;0.38;;
37831;SDS011;23671;38.090;-122.570;2023-02-22T05:50:22;3.45;;;0.60;;
37831;SDS011;23671;38.090;-122.570;2023-02-22T05:52:49;3.85;;;0.65;;
37831;SDS011;23671;38.090;-122.570;2023-02-22T05:55:18;2.92;;;0.70;;
37831;SDS011;23671;38.090;-122.570;2023-02-22T05:57:47;3.20;;;0.80;;
37831;SDS011;23671;38.090;-122.570;2023-02-22T06:00:19;1.17;;;0.47;;
37831;SDS011;23671;38.090;-122.570;2023-02-22T06:05:32;2.40;;;0.30;;
37831;SDS011;23671;38.090;-122.570;2023-02-22T06:08:00;3.10;;;0.88;;
37831;SDS011;23671;38.090;-122.570;2023-02-22T06:10:28;2.63;;;0.60;;
37831;SDS011;23671;38.090;-122.570;2023-02-22T06:12:55;2.08;;;0.50;;
37831;SDS011;23671;38.090;-122.570;2023-02-22T06:15:23;4.57;;;1.00;;
37831;SDS011;23671;38.090;-122.570;2023-02-22T06:17:52;1.40;;;0.40;;
37831;SDS011;23671;38.090;-122.570;2023-02-22T06:20:21;5.32;;;1.00;;
37831;SDS011;23671;38.090;-122.570;2023-02-22T06:22:49;2.88;;;0.70;;
37831;SDS011;23671;38.090;-122.570;2023-02-22T06:25:19;2.58;;;0.85;;
37831;SDS011;23671;38.090;-122.570;2023-02-22T06:27:48;1.15;;;0.50;;
37831;SDS011;23671;38.090;-122.570;2023-02-22T06:30:16;3.45;;;0.65;;
37831;SDS011;23671;38.090;-122.570;2023-02-22T06:32:45;4.13;;;0.80;;
37831;SDS011;23671;38.090;-122.570;2023-02-22T06:35:12;5.47;;;1.55;;
37831;SDS011;23671;38.090;-122.570;2023-02-22T06:37:40;4.30;;;0.80;;
37831;SDS011;23671;38.090;-122.570;2023-02-22T06:40:07;3.40;;;0.60;;
37831;SDS011;23671;38.090;-122.570;2023-02-22T06:42:35;4.05;;;0.60;;
37831;SDS011;23671;38.090;-122.570;2023-02-22T06:45:03;2.05;;;0.60;;
37831;SDS011;23671;38.090;-122.570;2023-02-22T06:47:31;4.07;;;0.60;;
37831;SDS011;23671;38.090;-122.570;2023-02-22T06:49:58;2.95;;;0.73;;
37831;SDS011;23671;38.090;-122.570;2023-02-22T06:52:25;1.60;;;0.50;;
37831;SDS011;23671;38.090;-122.570;2023-02-22T06:54:52;8.63;;;2.08;;
37831;SDS011;23671;38.090;-122.570;2023-02-22T06:57:19;1.80;;;0.63;;
37831;SDS011;23671;38.090;-122.570;2023-02-22T06:59:46;6.47;;;1.27;;
37831;SDS011;23671;38.090;-122.570;2023-02-22T07:02:13;3.05;;;1.60;;
37831;SDS011;23671;38.090;-122.570;2023-02-22T07:04:40;3.15;;;0.77;;
37831;SDS011;23671;38.090;-122.570;2023-02-22T07:07:09;4.17;;;0.80;;
37831;SDS011;23671;38.090;-122.570;2023-02-22T07:09:36;2.60;;;0.70;;
37831;SDS011;23671;38.090;-122.570;2023-02-22T07:12:03;2.25;;;0.68;;
37831;SDS011;23671;38.090;-122.570;2023-02-22T07:14:31;3.15;;;0.68;;
37831;SDS011;23671;38.090;-122.570;2023-02-22T07:16:58;3.00;;;0.90;;
37831;SDS011;23671;38.090;-122.570;2023-02-22T07:19:25;1.85;;;0.60;;
37831;SDS011;23671;38.090;-122.570;2023-02-22T07:21:52;3.63;;;0.70;;
37831;SDS011;23671;38.090;-122.570;2023-02-22T07:24:23;2.75;;;0.60;;
37831;SDS011;23671;38.090;-122.570;2023-02-22T07:26:52;3.20;;;0.60;;
37831;SDS011;23671;38.090;-122.570;2023-02-22T07:29:19;3.50;;;0.68;;
37831;SDS011;23671;38.090;-122.570;2023-02-22T07:31:47;2.95;;;0.80;;
37831;SDS011;23671;38.090;-122.570;2023-02-22T07:34:14;3.10;;;1.00;;
37831;SDS011;23671;38.090;-122.570;2023-02-22T07:36:41;3.88;;;0.80;;
37831;SDS011;23671;38.090;-122.570;2023-02-22T07:39:08;2.70;;;0.60;;
37831;SDS011;23671;38.090;-122.570;2023-02-22T07:41:35;1.95;;;0.73;;
37831;SDS011;23671;38.090;-122.570;2023-02-22T07:44:02;3.00;;;0.80;;
37831;SDS011;23671;38.090;-122.570;2023-02-22T07:46:29;3.17;;;1.08;;
37831;SDS011;23671;38.090;-122.570;2023-02-22T07:48:56;2.03;;;0.70;;
37831;SDS011;23671;38.090;-122.570;2023-02-22T07:51:23;2.85;;;0.93;;
37831;SDS011;23671;38.090;-122.570;2023-02-22T07:53:51;5.85;;;0.90;;
37831;SDS011;23671;38.090;-122.570;2023-02-22T07:56:18;4.72;;;0.80;;
37831;SDS011;23671;38.090;-122.570;2023-02-22T07:58:45;5.80;;;0.70;;
37831;SDS011;23671;38.090;-122.570;2023-02-22T08:01:12;6.32;;;0.98;;
37831;SDS011;23671;38.090;-122.570;2023-02-22T08:03:39;7.60;;;1.35;;
37831;SDS011;23671;38.090;-122.570;2023-02-22T08:06:06;5.72;;;0.75;;
37831;SDS011;23671;38.090;-122.570;2023-02-22T08:08:33;2.33;;;0.70;;
37831;SDS011;23671;38.090;-122.570;2023-02-22T08:11:01;4.13;;;0.93;;
37831;SDS011;23671;38.090;-122.570;2023-02-22T08:13:28;3.25;;;1.17;;
37831;SDS011;23671;38.090;-122.570;2023-02-22T08:15:55;3.40;;;0.80;;
37831;SDS011;23671;38.090;-122.570;2023-02-22T08:18:23;5.90;;;1.13;;
37831;SDS011;23671;38.090;-122.570;2023-02-22T08:20:50;4.07;;;0.63;;
37831;SDS011;23671;38.090;-122.570;2023-02-22T08:23:20;6.72;;;1.10;;
37831;SDS011;23671;38.090;-122.570;2023-02-22T08:25:49;4.05;;;1.02;;
37831;SDS011;23671;38.090;-122.570;2023-02-22T08:28:17;3.70;;;0.60;;
37831;SDS011;23671;38.090;-122.570;2023-02-22T08:30:47;4.30;;;0.80;;
37831;SDS011;23671;38.090;-122.570;2023-02-22T08:33:15;6.53;;;1.25;;
37831;SDS011;23671;38.090;-122.570;2023-02-22T08:35:44;3.88;;;0.80;;
37831;SDS011;23671;38.090;-122.570;2023-02-22T08:38:23;5.18;;;0.98;;
37831;SDS011;23671;38.090;-122.570;2023-02-22T08:40:52;3.13;;;0.50;;
37831;SDS011;23671;38.090;-122.570;2023-02-22T08:43:19;3.08;;;0.80;;
37831;SDS011;23671;38.090;-122.570;2023-02-22T08:45:47;4.35;;;1.27;;
37831;SDS011;23671;38.090;-122.570;2023-02-22T08:48:16;4.40;;;1.05;;
37831;SDS011;23671;38.090;-122.570;2023-02-22T08:50:44;3.35;;;0.80;;
37831;SDS011;23671;38.090;-122.570;2023-02-22T08:53:12;3.30;;;0.70;;
37831;SDS011;23671;38.090;-122.570;2023-02-22T08:55:39;4.85;;;1.10;;
37831;SDS011;23671;38.090;-122.570;2023-02-22T08:58:07;4.07;;;1.20;;
37831;SDS011;23671;38.090;-122.570;2023-02-22T09:00:34;3.15;;;0.93;;
37831;SDS011;23671;38.090;-122.570;2023-02-22T09:03:03;3.10;;;0.70;;
37831;SDS011;23671;38.090;-122.570;2023-02-22T09:05:32;5.15;;;1.08;;
37831;SDS011;23671;38.090;-122.570;2023-02-22T09:07:59;3.88;;;1.10;;
37831;SDS011;23671;38.090;-122.570;2023-02-22T09:10:28;5.63;;;1.35;;
37831;SDS011;23671;38.090;-122.570;2023-02-22T09:12:57;2.58;;;0.77;;
37831;SDS011;23671;38.090;-122.570;2023-02-22T09:15:28;4.80;;;1.00;;
37831;SDS011;23671;38.090;-122.570;2023-02-22T09:17:56;7.22;;;1.10;;
37831;SDS011;23671;38.090;-122.570;2023-02-22T09:20:23;5.15;;;0.90;;
37831;SDS011;23671;38.090;-122.570;2023-02-22T09:22:52;6.43;;;1.13;;
37831;SDS011;23671;38.090;-122.570;2023-02-22T09:25:19;2.83;;;0.75;;
37831;SDS011;23671;38.090;-122.570;2023-02-22T09:27:48;4.45;;;0.82;;
37831;SDS011;23671;38.090;-122.570;2023-02-22T09:32:43;5.55;;;1.13;;
37831;SDS011;23671;38.090;-122.570;2023-02-22T09:35:10;4.20;;;1.02;;
37831;SDS011;23671;38.090;-122.570;2023-02-22T09:37:37;4.15;;;1.25;;
37831;SDS011;23671;38.090;-122.570;2023-02-22T09:40:04;3.80;;;0.82;;
37831;SDS011;23671;38.090;-122.570;2023-02-22T09:42:39;8.10;;;1.05;;
37831;SDS011;23671;38.090;-122.570;2023-02-22T09:45:17;9.05;;;1.10;;
37831;SDS011;23671;38.090;-122.570;2023-02-22T09:47:49;4.32;;;0.90;;
37831;SDS011;23671;38.090;-122.570;2023-02-22T09:50:22;2.58;;;0.60;;
37831;SDS011;23671;38.090;-122.570;2023-02-22T09:55:48;6.15;;;0.98;;
37831;SDS011;23671;38.090;-122.570;2023-02-22T10:00:53;5.95;;;0.80;;
37831;SDS011;23671;38.090;-122.570;2023-02-22T10:03:46;4.78;;;0.80;;
37831;SDS011;23671;38.090;-122.570;2023-02-22T10:06:20;4.15;;;0.85;;
37831;SDS011;23671;38.090;-122.570;2023-02-22T10:08:50;2.45;;;0.85;;
37831;SDS011;23671;38.090;-122.570;2023-02-22T10:11:38;5.53;;;0.65;;
37831;SDS011;23671;38.090;-122.570;2023-02-22T10:25:41;3.60;;;0.50;;
37831;SDS011;23671;38.090;-122.570;2023-02-22T10:28:17;6.80;;;1.00;;
37831;SDS011;23671;38.090;-122.570;2023-02-22T10:31:01;6.90;;;1.05;;
37831;SDS011;23671;38.090;-122.570;2023-02-22T10:33:46;5.90;;;0.82;;
37831;SDS011;23671;38.090;-122.570;2023-02-22T10:36:20;3.85;;;1.00;;
37831;SDS011;23671;38.090;-122.570;2023-02-22T10:38:56;2.13;;;0.77;;
37831;SDS011;23671;38.090;-122.570;2023-02-22T10:44:08;3.53;;;0.90;;
37831;SDS011;23671;38.090;-122.570;2023-02-22T10:46:36;3.83;;;0.70;;
37831;SDS011;23671;38.090;-122.570;2023-02-22T10:49:06;3.38;;;0.88;;
37831;SDS011;23671;38.090;-122.570;2023-02-22T10:51:35;5.18;;;0.85;;
37831;SDS011;23671;38.090;-122.570;2023-02-22T10:57:12;4.72;;;0.70;;
37831;SDS011;23671;38.090;-122.570;2023-02-22T10:59:34;3.78;;;0.80;;
37831;SDS011;23671;38.090;-122.570;2023-02-22T11:02:17;3.63;;;0.70;;
37831;SDS011;23671;38.090;-122.570;2023-02-22T11:04:55;5.68;;;0.95;;
37831;SDS011;23671;38.090;-122.570;2023-02-22T11:07:25;3.95;;;0.70;;
37831;SDS011;23671;38.090;-122.570;2023-02-22T11:09:54;6.05;;;0.75;;
37831;SDS011;23671;38.090;-122.570;2023-02-22T11:14:56;1.73;;;0.50;;
37831;SDS011;23671;38.090;-122.570;2023-02-22T11:17:44;1.77;;;0.50;;
37831;SDS011;23671;38.090;-122.570;2023-02-22T11:20:20;3.88;;;0.88;;
37831;SDS011;23671;38.090;-122.570;2023-02-22T11:22:59;5.07;;;0.70;;
37831;SDS011;23671;38.090;-122.570;2023-02-22T11:25:38;2.10;;;0.70;;
37831;SDS011;23671;38.090;-122.570;2023-02-22T11:28:10;2.20;;;0.73;;
37831;SDS011;23671;38.090;-122.570;2023-02-22T11:30:50;2.38;;;0.65;;
37831;SDS011;23671;38.090;-122.570;2023-02-22T11:33:21;3.53;;;0.70;;
37831;SDS011;23671;38.090;-122.570;2023-02-22T11:35:53;2.45;;;0.50;;
37831;SDS011;23671;38.090;-122.570;2023-02-22T11:43:51;2.85;;;0.60;;
37831;SDS011;23671;38.090;-122.570;2023-02-22T11:46:33;1.60;;;0.40;;
37831;SDS011;23671;38.090;-122.570;2023-02-22T11:49:05;2.25;;;0.80;;
37831;SDS011;23671;38.090;-122.570;2023-02-22T12:11:13;2.15;;;0.73;;
37831;SDS011;23671;38.090;-122.570;2023-02-22T12:13:47;2.40;;;0.63;;
37831;SDS011;23671;38.090;-122.570;2023-02-22T12:16:33;2.40;;;0.77;;
37831;SDS011;23671;38.090;-122.570;2023-02-22T12:22:07;2.05;;;0.60;;
37831;SDS011;23671;38.090;-122.570;2023-02-22T12:24:52;3.42;;;0.55;;
37831;SDS011;23671;38.090;-122.570;2023-02-22T12:27:32;1.25;;;0.50;;
37831;SDS011;23671;38.090;-122.570;2023-02-22T12:33:15;2.20;;;0.63;;
37831;SDS011;23671;38.090;-122.570;2023-02-22T12:35:50;1.67;;;0.47;;
37831;SDS011;23671;38.090;-122.570;2023-02-22T12:38:27;1.42;;;0.50;;
37831;SDS011;23671;38.090;-122.570;2023-02-22T12:44:13;1.77;;;0.70;;
37831;SDS011;23671;38.090;-122.570;2023-02-22T12:46:49;1.27;;;0.30;;
37831;SDS011;23671;38.090;-122.570;2023-02-22T12:55:13;1.95;;;0.40;;
37831;SDS011;23671;38.090;-122.570;2023-02-22T13:08:44;2.88;;;0.80;;
37831;SDS011;23671;38.090;-122.570;2023-02-22T13:11:52;5.88;;;0.63;;
37831;SDS011;23671;38.090;-122.570;2023-02-22T13:17:30;2.78;;;0.55;;
37831;SDS011;23671;38.090;-122.570;2023-02-22T13:20:36;2.10;;;0.40;;
37831;SDS011;23671;38.090;-122.570;2023-02-22T13:25:55;2.60;;;0.70;;
37831;SDS011;23671;38.090;-122.570;2023-02-22T13:28:44;2.47;;;0.55;;
37831;SDS011;23671;38.090;-122.570;2023-02-22T13:34:29;1.92;;;0.40;;
37831;SDS011;23671;38.090;-122.570;2023-02-22T13:43:09;2.55;;;0.52;;
37831;SDS011;23671;38.090;-122.570;2023-02-22T13:54:02;2.15;;;0.50;;
37831;SDS011;23671;38.090;-122.570;2023-02-22T13:56:33;0.50;;;0.30;;
37831;SDS011;23671;38.090;-122.570;2023-02-22T13:59:06;2.60;;;0.65;;
37831;SDS011;23671;38.090;-122.570;2023-02-22T14:01:49;3.35;;;0.70;;
37831;SDS011;23671;38.090;-122.570;2023-02-22T14:06:53;1.80;;;0.38;;
37831;SDS011;23671;38.090;-122.570;2023-02-22T14:17:39;1.83;;;0.50;;
37831;SDS011;23671;38.090;-122.570;2023-02-22T14:20:36;2.88;;;0.50;;
37831;SDS011;23671;38.090;-122.570;2023-02-22T14:25:49;4.38;;;0.70;;
37831;SDS011;23671;38.090;-122.570;2023-02-22T14:31:13;2.53;;;0.65;;
37831;SDS011;23671;38.090;-122.570;2023-02-22T14:41:57;1.65;;;0.50;;
37831;SDS011;23671;38.090;-122.570;2023-02-22T14:44:49;1.55;;;0.50;;
37831;SDS011;23671;38.090;-122.570;2023-02-22T14:47:30;4.60;;;0.85;;
37831;SDS011;23671;38.090;-122.570;2023-02-22T14:52:47;3.58;;;0.52;;
37831;SDS011;23671;38.090;-122.570;2023-02-22T14:55:26;4.27;;;0.60;;
37831;SDS011;23671;38.090;-122.570;2023-02-22T15:00:38;3.63;;;1.05;;
37831;SDS011;23671;38.090;-122.570;2023-02-22T15:03:26;1.98;;;0.70;;
37831;SDS011;23671;38.090;-122.570;2023-02-22T15:06:20;3.08;;;0.70;;
37831;SDS011;23671;38.090;-122.570;2023-02-22T15:14:18;5.18;;;0.80;;
37831;SDS011;23671;38.090;-122.570;2023-02-22T15:16:48;2.80;;;0.60;;
37831;SDS011;23671;38.090;-122.570;2023-02-22T15:19:28;1.92;;;0.50;;
37831;SDS011;23671;38.090;-122.570;2023-02-22T15:21:58;3.05;;;0.57;;
37831;SDS011;23671;38.090;-122.570;2023-02-22T15:24:27;2.58;;;0.50;;
37831;SDS011;23671;38.090;-122.570;2023-02-22T15:27:11;3.25;;;0.68;;
37831;SDS011;23671;38.090;-122.570;2023-02-22T15:29:43;3.47;;;0.60;;
37831;SDS011;23671;38.090;-122.570;2023-02-22T15:35:04;3.03;;;0.80;;
37831;SDS011;23671;38.090;-122.570;2023-02-22T15:37:37;2.13;;;0.70;;
37831;SDS011;23671;38.090;-122.570;2023-02-22T15:40:07;2.72;;;0.57;;
37831;SDS011;23671;38.090;-122.570;2023-02-22T15:42:58;5.32;;;1.05;;
37831;SDS011;23671;38.090;-122.570;2023-02-22T15:45:29;3.17;;;0.80;;
37831;SDS011;23671;38.090;-122.570;2023-02-22T15:47:56;2.10;;;0.50;;
37831;SDS011;23671;38.090;-122.570;2023-02-22T15:50:33;1.92;;;0.70;;
37831;SDS011;23671;38.090;-122.570;2023-02-22T15:53:04;3.10;;;0.88;;
37831;SDS011;23671;38.090;-122.570;2023-02-22T15:55:38;2.70;;;0.57;;
37831;SDS011;23671;38.090;-122.570;2023-02-22T15:58:18;2.35;;;0.50;;
37831;SDS011;23671;38.090;-122.570;2023-02-22T16:00:50;3.40;;;0.70;;
37831;SDS011;23671;38.090;-122.570;2023-02-22T16:04:14;1.52;;;0.60;;
37831;SDS011;23671;38.090;-122.570;2023-02-22T16:09:13;3.80;;;0.70;;
37831;SDS011;23671;38.090;-122.570;2023-02-22T16:14:44;3.40;;;0.55;;
37831;SDS011;23671;38.090;-122.570;2023-02-22T16:22:42;3.97;;;0.60;;
37831;SDS011;23671;38.090;-122.570;2023-02-22T16:27:51;2.60;;;0.55;;
37831;SDS011;23671;38.090;-122.570;2023-02-22T16:30:35;3.05;;;0.50;;
37831;SDS011;23671;38.090;-122.570;2023-02-22T16:33:06;3.25;;;0.40;;
37831;SDS011;23671;38.090;-122.570;2023-02-22T16:35:41;1.70;;;0.60;;
37831;SDS011;23671;38.090;-122.570;2023-02-22T16:38:16;0.68;;;0.47;;
37831;SDS011;23671;38.090;-122.570;2023-02-22T16:40:50;1.23;;;0.77;;
37831;SDS011;23671;38.090;-122.570;2023-02-22T16:43:24;2.83;;;0.50;;
37831;SDS011;23671;38.090;-122.570;2023-02-22T16:45:55;5.47;;;0.90;;
37831;SDS011;23671;38.090;-122.570;2023-02-22T16:48:24;0.35;;;0.30;;
37831;SDS011;23671;38.090;-122.570;2023-02-22T16:50:54;3.97;;;0.80;;
37831;SDS011;23671;38.090;-122.570;2023-02-22T16:53:26;4.32;;;0.55;;
37831;SDS011;23671;38.090;-122.570;2023-02-22T16:55:59;3.35;;;0.55;;
37831;SDS011;23671;38.090;-122.570;2023-02-22T16:58:32;2.45;;;0.55;;
37831;SDS011;23671;38.090;-122.570;2023-02-22T17:01:03;2.70;;;0.57;;
37831;SDS011;23671;38.090;-122.570;2023-02-22T17:03:30;1.83;;;0.63;;
37831;SDS011;23671;38.090;-122.570;2023-02-22T17:05:57;3.25;;;0.55;;
37831;SDS011;23671;38.090;-122.570;2023-02-22T17:08:24;2.72;;;0.57;;
37831;SDS011;23671;38.090;-122.570;2023-02-22T17:10:52;4.95;;;1.17;;
37831;SDS011;23671;38.090;-122.570;2023-02-22T17:13:22;9.50;;;0.88;;
37831;SDS011;23671;38.090;-122.570;2023-02-22T17:18:19;3.50;;;0.98;;
37831;SDS011;23671;38.090;-122.570;2023-02-22T17:20:48;1.13;;;0.50;;
37831;SDS011;23671;38.090;-122.570;2023-02-22T17:23:16;2.88;;;0.88;;
37831;SDS011;23671;38.090;-122.570;2023-02-22T17:28:17;4.20;;;0.70;;
37831;SDS011;23671;38.090;-122.570;2023-02-22T17:30:44;2.20;;;0.80;;
37831;SDS011;23671;38.090;-122.570;2023-02-22T17:33:31;2.80;;;0.55;;
37831;SDS011;23671;38.090;-122.570;2023-02-22T17:36:01;7.05;;;0.70;;
37831;SDS011;23671;38.090;-122.570;2023-02-22T17:38:29;3.37;;;0.80;;
37831;SDS011;23671;38.090;-122.570;2023-02-22T17:40:57;2.53;;;1.00;;
37831;SDS011;23671;38.090;-122.570;2023-02-22T17:43:25;2.73;;;0.93;;
37831;SDS011;23671;38.090;-122.570;2023-02-22T17:45:53;2.58;;;0.70;;
37831;SDS011;23671;38.090;-122.570;2023-02-22T17:48:21;1.83;;;0.50;;
37831;SDS011;23671;38.090;-122.570;2023-02-22T17:50:48;2.83;;;1.10;;
37831;SDS011;23671;38.090;-122.570;2023-02-22T17:53:16;4.38;;;0.80;;
37831;SDS011;23671;38.090;-122.570;2023-02-22T17:55:46;4.55;;;0.80;;
37831;SDS011;23671;38.090;-122.570;2023-02-22T17:58:14;5.20;;;0.68;;
37831;SDS011;23671;38.090;-122.570;2023-02-22T18:00:44;4.95;;;0.57;;
37831;SDS011;23671;38.090;-122.570;2023-02-22T18:03:14;5.70;;;1.05;;
37831;SDS011;23671;38.090;-122.570;2023-02-22T18:05:50;3.35;;;0.70;;